Time;durP1;ratioP1;P1;durP2;ratioP2;P2;SDS_P1;SDS_P2;PMS_P1;PMS_P2;Temp;Humidity;BMP_temperature;BMP_pressure;BME280_temperature;BME280_humidity;BME280_pressure;Samples;Min_cycle;Max_cycle;Signal;HPM_P1;HPM_P2
2024/01/03 00:01:30;;;;;;;3.83;0.73;;;11.80;64.30;;;;;;5033081;28;20514;-77
2024/01/03 00:03:57;;;;;;;1.60;0.60;;;11.80;64.80;;;;;;5033114;28;20561;-76
2024/01/03 00:06:31;;;;;;;1.80;0.70;;;11.70;65.80;;;;;;5033677;28;20473;-76
2024/01/03 00:09:00;;;;;;;1.80;0.70;;;11.70;66.40;;;;;;5033723;28;20434;-76
2024/01/03 00:11:30;;;;;;;1.70;0.60;;;11.70;66.70;;;;;;5033012;28;20434;-76
2024/01/03 00:14:11;;;;;;;2.00;0.67;;;11.60;66.70;;;;;;5033680;28;20710;-76
2024/01/03 00:16:41;;;;;;;2.53;0.80;;;11.60;66.60;;;;;;5013730;28;20494;-76
2024/01/03 00:19:16;;;;;;;1.80;0.77;;;11.50;66.60;;;;;;5013606;28;20467;-76
2024/01/03 00:21:43;;;;;;;1.90;0.70;;;11.50;66.80;;;;;;5013685;28;20427;-76
2024/01/03 00:24:15;;;;;;;1.80;0.70;;;11.40;66.80;;;;;;5013204;28;20502;-76
2024/01/03 00:26:42;;;;;;;1.90;0.70;;;11.40;66.90;;;;;;5026627;28;21000;-76
2024/01/03 00:29:53;;;;;;;2.00;0.67;;;11.40;66.90;;;;;;5031440;28;20470;-76
2024/01/03 00:32:22;;;;;;;1.90;0.73;;;11.40;66.60;;;;;;5031995;28;20426;-77
2024/01/03 00:34:50;;;;;;;1.80;0.80;;;11.40;66.30;;;;;;5033650;28;20431;-77
2024/01/03 00:37:25;;;;;;;1.92;0.75;;;11.30;66.50;;;;;;5033487;28;20526;-77
2024/01/03 00:39:56;;;;;;;1.73;0.63;;;11.30;66.60;;;;;;5032404;28;20671;-76
2024/01/03 00:42:23;;;;;;;1.77;0.63;;;11.20;66.70;;;;;;5033707;28;20445;-77
2024/01/03 00:44:50;;;;;;;1.80;0.70;;;11.20;67.00;;;;;;5033453;28;20477;-76
2024/01/03 00:47:20;;;;;;;2.00;0.80;;;11.10;66.20;;;;;;5032429;28;20621;-76
2024/01/03 00:49:48;;;;;;;1.80;0.77;;;11.10;65.70;;;;;;5033138;28;20227;-76
2024/01/03 00:52:18;;;;;;;1.80;0.70;;;11.10;65.20;;;;;;5033395;28;20442;-76
2024/01/03 00:54:47;;;;;;;2.33;0.80;;;11.10;65.00;;;;;;5033414;28;20428;-76
2024/01/03 00:57:16;;;;;;;2.20;0.90;;;11.10;64.40;;;;;;5033487;28;20838;-76
2024/01/03 00:59:45;;;;;;;1.70;0.60;;;11.10;64.00;;;;;;5032684;28;20480;-76
2024/01/03 01:02:12;;;;;;;3.07;0.90;;;11.10;64.40;;;;;;5032514;28;21007;-76
2024/01/03 01:04:40;;;;;;;1.70;0.65;;;11.00;64.20;;;;;;5033169;28;20911;-76
2024/01/03 01:07:08;;;;;;;2.22;0.77;;;11.00;64.60;;;;;;5033325;28;20194;-76
2024/01/03 01:09:35;;;;;;;1.67;0.70;;;10.90;64.90;;;;;;5033267;28;20283;-77
2024/01/03 01:12:03;;;;;;;2.20;0.90;;;10.80;65.20;;;;;;5032307;28;20441;-77
2024/01/03 01:14:31;;;;;;;1.92;0.82;;;10.80;65.60;;;;;;5033012;28;20218;-76
2024/01/03 01:17:00;;;;;;;1.70;0.70;;;10.70;66.00;;;;;;5032937;28;20187;-76
2024/01/03 01:19:27;;;;;;;1.70;0.70;;;10.70;66.40;;;;;;5032335;28;20271;-76
2024/01/03 01:21:54;;;;;;;1.80;0.68;;;10.70;66.70;;;;;;5032846;28;20649;-76
2024/01/03 01:24:21;;;;;;;1.90;0.67;;;10.60;67.10;;;;;;5027208;28;20637;-76
2024/01/03 01:26:48;;;;;;;1.80;0.70;;;10.60;67.70;;;;;;5032667;28;20521;-77
2024/01/03 01:29:19;;;;;;;1.70;0.70;;;10.50;68.40;;;;;;5032602;28;20545;-77
2024/01/03 01:31:48;;;;;;;2.00;0.80;;;10.50;68.80;;;;;;5033363;28;20207;-77
2024/01/03 01:34:15;;;;;;;2.00;1.00;;;10.50;68.90;;;;;;5032953;28;20287;-77
2024/01/03 01:36:47;;;;;;;2.00;0.85;;;10.40;69.00;;;;;;5032778;28;20252;-77
2024/01/03 01:39:14;;;;;;;1.80;0.77;;;10.40;69.10;;;;;;5032097;28;20179;-77
2024/01/03 01:41:41;;;;;;;2.50;0.90;;;10.40;69.00;;;;;;5032323;28;20226;-77
2024/01/03 01:44:13;;;;;;;2.28;1.00;;;10.40;69.20;;;;;;5032746;28;20211;-76
2024/01/03 01:46:43;;;;;;;1.80;0.70;;;10.40;69.10;;;;;;5032001;28;20280;-76
2024/01/03 01:49:12;;;;;;;1.70;0.80;;;10.40;69.00;;;;;;5031137;28;20651;-77
2024/01/03 01:51:40;;;;;;;1.80;0.73;;;10.50;68.90;;;;;;5031801;28;20195;-77
2024/01/03 01:54:07;;;;;;;1.70;0.70;;;10.50;68.80;;;;;;5033064;28;20230;-76
2024/01/03 01:56:34;;;;;;;1.75;0.82;;;10.60;68.50;;;;;;5032633;28;20712;-76
2024/01/03 01:59:02;;;;;;;1.60;0.60;;;10.60;68.20;;;;;;5033043;28;20282;-77
2024/01/03 02:01:30;;;;;;;1.60;0.60;;;10.60;68.10;;;;;;5032897;28;20237;-76
2024/01/03 02:03:57;;;;;;;2.05;0.88;;;10.60;68.30;;;;;;5032846;28;20275;-76
2024/01/03 02:06:26;;;;;;;1.90;0.90;;;10.60;68.30;;;;;;5032380;28;20274;-77
2024/01/03 02:08:53;;;;;;;1.70;0.70;;;10.60;68.30;;;;;;5032558;28;20188;-76
2024/01/03 02:11:20;;;;;;;1.70;0.60;;;10.50;68.20;;;;;;5032712;28;20195;-76
2024/01/03 02:13:47;;;;;;;1.80;0.70;;;10.50;68.30;;;;;;5036144;28;20285;-76
2024/01/03 02:16:14;;;;;;;5.10;0.70;;;10.40;68.30;;;;;;5036215;28;20230;-76
2024/01/03 02:18:42;;;;;;;1.67;0.65;;;10.50;68.20;;;;;;5036233;28;20583;-76
2024/01/03 02:21:13;;;;;;;2.33;0.70;;;10.40;67.90;;;;;;5036091;28;20270;-76
2024/01/03 02:23:40;;;;;;;1.80;0.82;;;10.40;67.90;;;;;;5036526;28;20179;-76
2024/01/03 02:26:08;;;;;;;1.80;0.73;;;10.40;67.60;;;;;;5036205;28;20211;-76
2024/01/03 02:28:34;;;;;;;1.85;0.77;;;10.40;67.60;;;;;;5036030;28;20195;-76
2024/01/03 02:31:02;;;;;;;2.45;0.75;;;10.50;68.30;;;;;;5035783;28;20275;-76
2024/01/03 02:33:29;;;;;;;1.85;0.88;;;10.50;67.40;;;;;;5035699;28;20286;-76
2024/01/03 02:35:56;;;;;;;1.70;0.70;;;10.60;67.60;;;;;;5035803;28;20286;-76
2024/01/03 02:38:24;;;;;;;1.70;0.70;;;10.60;67.50;;;;;;5035720;28;20274;-76
2024/01/03 02:40:51;;;;;;;1.70;0.60;;;10.60;67.60;;;;;;5035994;28;20286;-76
2024/01/03 02:43:18;;;;;;;1.70;0.80;;;10.70;67.40;;;;;;5036006;28;20199;-76
2024/01/03 02:45:45;;;;;;;1.90;0.80;;;10.70;67.00;;;;;;5035491;28;20214;-76
2024/01/03 02:48:12;;;;;;;1.90;1.20;;;10.70;67.10;;;;;;5036054;28;20266;-76
2024/01/03 02:50:43;;;;;;;1.80;0.70;;;10.60;67.40;;;;;;5035225;28;20717;-76
2024/01/03 02:53:10;;;;;;;1.90;0.80;;;10.70;67.30;;;;;;5035439;28;20183;-76
2024/01/03 02:55:39;;;;;;;1.90;0.70;;;10.60;67.10;;;;;;5035960;28;20231;-76
2024/01/03 02:58:06;;;;;;;2.58;0.80;;;10.70;67.10;;;;;;5035048;28;20712;-76
2024/01/03 03:00:39;;;;;;;1.63;0.60;;;10.70;67.20;;;;;;5035668;28;20223;-76
2024/01/03 03:03:06;;;;;;;1.80;0.70;;;10.70;67.40;;;;;;5035863;28;20805;-76
2024/01/03 03:05:33;;;;;;;1.70;0.80;;;10.80;67.10;;;;;;5035181;28;20335;-76
2024/01/03 03:07:59;;;;;;;1.65;0.60;;;10.90;66.90;;;;;;5035642;28;20226;-76
2024/01/03 03:10:26;;;;;;;1.90;0.80;;;10.90;66.50;;;;;;5035154;28;20238;-76
2024/01/03 03:12:55;;;;;;;1.70;0.65;;;11.00;66.70;;;;;;5034820;28;20227;-76
2024/01/03 03:15:21;;;;;;;1.90;0.80;;;11.00;66.40;;;;;;5035431;28;20282;-76
2024/01/03 03:17:48;;;;;;;1.63;0.60;;;11.00;65.90;;;;;;5034974;28;20285;-76
2024/01/03 03:20:15;;;;;;;1.70;0.70;;;11.10;65.80;;;;;;5035474;28;20293;-76
2024/01/03 03:22:42;;;;;;;1.80;0.70;;;11.10;65.20;;;;;;5034925;28;20714;-76
2024/01/03 03:25:09;;;;;;;1.65;0.63;;;11.10;64.50;;;;;;5034140;28;20298;-76
2024/01/03 03:27:36;;;;;;;1.80;0.77;;;11.10;63.40;;;;;;5035152;28;20617;-76
2024/01/03 03:30:06;;;;;;;2.40;1.00;;;11.10;63.10;;;;;;5034825;28;20542;-76
2024/01/03 03:32:33;;;;;;;1.70;0.60;;;11.10;63.00;;;;;;5035048;28;20426;-76
2024/01/03 03:35:00;;;;;;;1.60;0.50;;;11.10;63.00;;;;;;5035043;28;20449;-76
2024/01/03 03:37:27;;;;;;;1.70;0.60;;;11.10;63.00;;;;;;5034656;28;20434;-76
2024/01/03 03:39:54;;;;;;;1.70;0.70;;;11.20;63.00;;;;;;5034410;28;20467;-77
2024/01/03 03:42:22;;;;;;;1.80;0.63;;;11.20;63.00;;;;;;5034976;28;20462;-76
2024/01/03 03:44:49;;;;;;;1.80;0.60;;;11.20;63.20;;;;;;5034527;28;20519;-76
2024/01/03 03:47:18;;;;;;;1.70;0.60;;;11.30;63.50;;;;;;5034259;28;20564;-78
2024/01/03 03:49:45;;;;;;;1.80;0.80;;;11.30;63.50;;;;;;5035105;28;20772;-76
2024/01/03 03:52:12;;;;;;;1.70;0.60;;;11.30;63.40;;;;;;5034363;28;21008;-76
2024/01/03 03:54:39;;;;;;;1.70;0.70;;;11.20;64.40;;;;;;5034337;28;20516;-76
2024/01/03 03:57:06;;;;;;;1.67;0.60;;;11.10;63.70;;;;;;5034854;28;20289;-77
2024/01/03 03:59:33;;;;;;;1.70;0.83;;;11.00;63.80;;;;;;5034595;28;20521;-76
2024/01/03 04:02:00;;;;;;;1.60;0.60;;;11.00;63.70;;;;;;5034508;28;20436;-77
2024/01/03 04:04:28;;;;;;;1.63;0.60;;;11.00;63.20;;;;;;5034074;28;20441;-76
2024/01/03 04:06:55;;;;;;;1.70;0.68;;;10.90;63.10;;;;;;5033988;28;20525;-76
2024/01/03 04:09:24;;;;;;;1.70;0.70;;;10.90;63.20;;;;;;5034035;28;20241;-76
2024/01/03 04:11:51;;;;;;;2.30;0.70;;;10.90;63.00;;;;;;5034055;28;20437;-76
2024/01/03 04:14:18;;;;;;;1.80;0.70;;;10.90;62.70;;;;;;5034027;28;20952;-76
2024/01/03 04:16:47;;;;;;;2.33;0.70;;;10.90;62.10;;;;;;5033967;28;20481;-76
2024/01/03 04:19:14;;;;;;;2.33;0.85;;;10.90;62.30;;;;;;5033842;28;20641;-76
2024/01/03 04:21:42;;;;;;;1.70;0.60;;;10.90;62.20;;;;;;5033565;28;20689;-76
2024/01/03 04:24:09;;;;;;;1.70;0.60;;;10.90;62.20;;;;;;5034081;28;20517;-76
2024/01/03 04:26:38;;;;;;;1.90;0.77;;;10.90;62.20;;;;;;5033745;28;20505;-76
2024/01/03 04:29:04;;;;;;;2.03;0.80;;;11.00;61.60;;;;;;5033931;28;20431;-76
2024/01/03 04:31:32;;;;;;;1.80;0.80;;;11.00;61.60;;;;;;5033925;28;20226;-76
2024/01/03 04:33:58;;;;;;;1.70;0.70;;;11.00;61.60;;;;;;5033992;28;20472;-76
2024/01/03 04:36:25;;;;;;;1.63;0.60;;;11.10;61.50;;;;;;5033176;28;20714;-76
2024/01/03 04:38:54;;;;;;;1.80;0.70;;;11.10;61.80;;;;;;5033883;28;20238;-76
2024/01/03 04:41:21;;;;;;;1.67;0.70;;;11.10;62.40;;;;;;5033829;28;20187;-76
2024/01/03 04:43:48;;;;;;;1.70;0.80;;;11.20;63.50;;;;;;5033401;28;20293;-76
2024/01/03 04:46:16;;;;;;;1.70;0.70;;;11.20;64.50;;;;;;5033345;28;20583;-76
2024/01/03 04:48:43;;;;;;;1.80;0.80;;;11.10;65.60;;;;;;5033405;28;20432;-76
2024/01/03 04:51:10;;;;;;;1.67;0.60;;;11.10;66.10;;;;;;5033419;28;20604;-76
2024/01/03 04:53:38;;;;;;;1.70;0.70;;;11.00;66.80;;;;;;5033345;28;20498;-76
2024/01/03 04:56:07;;;;;;;2.63;0.60;;;11.00;67.50;;;;;;5033617;28;20517;-75
2024/01/03 04:58:34;;;;;;;1.77;0.73;;;10.90;67.60;;;;;;5033577;28;20477;-76
2024/01/03 05:01:03;;;;;;;2.33;0.77;;;10.90;67.70;;;;;;5033307;28;20199;-76
2024/01/03 05:03:30;;;;;;;1.70;0.70;;;10.90;67.90;;;;;;5033103;28;20187;-76
2024/01/03 05:05:57;;;;;;;1.67;0.60;;;10.90;68.90;;;;;;5033114;28;20561;-76
2024/01/03 05:08:24;;;;;;;1.70;0.70;;;10.90;69.80;;;;;;5033480;28;20234;-76
2024/01/03 05:10:51;;;;;;;1.70;0.60;;;10.90;70.50;;;;;;5032953;28;20210;-76
2024/01/03 05:13:19;;;;;;;1.67;0.67;;;10.90;70.90;;;;;;5033452;28;20223;-76
2024/01/03 05:15:46;;;;;;;1.80;0.73;;;10.90;71.10;;;;;;5033008;28;20528;-75
2024/01/03 05:18:13;;;;;;;1.70;0.60;;;10.80;71.70;;;;;;5032619;28;20525;-76
2024/01/03 05:20:40;;;;;;;1.70;0.60;;;10.80;71.60;;;;;;5033093;28;20477;-76
2024/01/03 05:23:07;;;;;;;1.70;0.60;;;10.80;72.40;;;;;;5033202;28;20438;-76
2024/01/03 05:25:34;;;;;;;2.00;0.82;;;10.70;73.00;;;;;;5032791;28;20508;-76
2024/01/03 05:28:02;;;;;;;2.83;0.67;;;10.70;74.00;;;;;;5033667;28;20278;-76
2024/01/03 05:30:30;;;;;;;1.80;0.70;;;10.60;75.00;;;;;;5032889;28;20442;-75
2024/01/03 05:32:57;;;;;;;1.90;0.80;;;10.60;75.60;;;;;;5033259;28;20291;-75
2024/01/03 05:35:24;;;;;;;1.80;0.80;;;10.60;74.70;;;;;;5032704;28;20480;-76
2024/01/03 05:37:53;;;;;;;1.67;0.60;;;10.50;74.80;;;;;;5031584;28;20226;-76
2024/01/03 05:40:20;;;;;;;1.70;0.60;;;10.40;74.60;;;;;;5031882;28;20184;-75
2024/01/03 05:42:49;;;;;;;1.80;0.70;;;10.40;75.00;;;;;;5033179;28;20517;-75
2024/01/03 05:45:16;;;;;;;1.80;0.70;;;10.30;75.30;;;;;;5032936;28;20223;-76
2024/01/03 05:47:44;;;;;;;1.70;0.60;;;10.30;75.80;;;;;;5035408;28;20262;-75
2024/01/03 05:50:11;;;;;;;2.60;0.60;;;10.30;76.00;;;;;;5036884;28;20278;-76
2024/01/03 05:52:38;;;;;;;1.65;0.70;;;10.20;76.00;;;;;;5036621;28;20298;-75
2024/01/03 05:55:08;;;;;;;9.38;3.25;;;10.20;75.80;;;;;;5036128;28;20215;-76
2024/01/03 05:57:35;;;;;;;1.83;0.70;;;10.20;76.20;;;;;;5037022;28;20218;-76
2024/01/03 06:00:05;;;;;;;2.20;0.70;;;10.20;76.50;;;;;;5036841;28;20245;-75
2024/01/03 06:02:34;;;;;;;1.70;0.68;;;10.20;76.90;;;;;;5036721;28;20274;-76
2024/01/03 06:05:02;;;;;;;1.70;0.50;;;10.20;77.40;;;;;;5036527;28;20192;-76
2024/01/03 06:07:29;;;;;;;2.42;0.90;;;10.20;78.30;;;;;;5036686;28;20241;-76
2024/01/03 06:09:56;;;;;;;3.00;0.80;;;10.10;79.00;;;;;;5036329;28;20202;-76
2024/01/03 06:12:23;;;;;;;2.13;0.95;;;10.10;78.60;;;;;;5036307;28;20223;-76
2024/01/03 06:14:52;;;;;;;2.92;0.77;;;10.10;78.10;;;;;;5036308;28;20218;-76
2024/01/03 06:17:19;;;;;;;1.88;0.75;;;10.10;78.40;;;;;;5036582;28;20520;-76
2024/01/03 06:19:46;;;;;;;2.00;0.85;;;10.00;78.20;;;;;;5036457;28;20237;-76
2024/01/03 06:22:15;;;;;;;2.00;1.05;;;9.90;79.40;;;;;;5036471;28;20234;-76
2024/01/03 06:24:41;;;;;;;2.45;1.15;;;9.80;79.70;;;;;;5036085;28;20561;-76
2024/01/03 06:27:08;;;;;;;2.60;1.23;;;9.70;80.30;;;;;;5036293;28;20311;-76
2024/01/03 06:29:37;;;;;;;2.45;1.13;;;9.70;80.80;;;;;;5036071;28;20226;-76
2024/01/03 06:32:05;;;;;;;1.80;0.70;;;9.70;81.10;;;;;;5035975;28;20195;-76
2024/01/03 06:34:37;;;;;;;1.70;0.70;;;9.80;81.30;;;;;;5035432;28;20183;-76
2024/01/03 06:37:04;;;;;;;1.80;0.70;;;9.80;81.50;;;;;;5036394;28;20250;-76
2024/01/03 06:39:32;;;;;;;2.30;0.80;;;9.80;81.90;;;;;;5035831;28;20223;-76
2024/01/03 06:42:00;;;;;;;2.25;0.90;;;9.80;82.50;;;;;;5035755;28;20686;-76
2024/01/03 06:44:27;;;;;;;2.20;0.80;;;9.80;82.60;;;;;;5036113;28;20191;-76
2024/01/03 06:46:55;;;;;;;1.70;0.60;;;9.90;83.40;;;;;;5035680;28;20689;-76
2024/01/03 06:49:22;;;;;;;1.83;0.95;;;9.90;83.90;;;;;;5035614;28;20192;-76
2024/01/03 06:51:49;;;;;;;1.65;0.63;;;9.90;84.60;;;;;;5035222;28;20190;-76
2024/01/03 06:54:16;;;;;;;7.15;2.40;;;9.90;85.10;;;;;;5035633;28;20290;-76
2024/01/03 06:56:44;;;;;;;1.80;0.80;;;9.90;84.90;;;;;;5035841;28;20282;-76
2024/01/03 06:59:11;;;;;;;2.03;0.80;;;10.00;83.80;;;;;;5034541;28;20282;-76
2024/01/03 07:01:38;;;;;;;1.80;0.70;;;10.00;83.40;;;;;;5034838;28;20274;-76
2024/01/03 07:04:05;;;;;;;1.73;0.70;;;10.00;84.20;;;;;;5035645;28;20254;-76
2024/01/03 07:06:32;;;;;;;3.42;1.10;;;9.90;85.70;;;;;;5035166;28;20254;-77
2024/01/03 07:08:59;;;;;;;1.98;0.80;;;9.90;85.60;;;;;;5035246;28;20234;-76
2024/01/03 07:11:26;;;;;;;3.05;1.40;;;9.90;85.50;;;;;;5034842;28;20271;-76
2024/01/03 07:13:55;;;;;;;1.80;0.93;;;9.90;85.40;;;;;;5035499;28;20608;-76
2024/01/03 07:16:22;;;;;;;1.70;0.60;;;9.90;85.90;;;;;;5035421;28;20230;-76
2024/01/03 07:18:49;;;;;;;1.85;0.80;;;9.90;86.20;;;;;;5034678;28;20191;-76
2024/01/03 07:21:16;;;;;;;1.98;0.60;;;9.80;85.80;;;;;;5035305;28;20283;-77
2024/01/03 07:23:43;;;;;;;3.38;1.90;;;9.90;86.10;;;;;;5035192;28;20246;-77
2024/01/03 07:26:10;;;;;;;2.00;0.82;;;9.80;85.50;;;;;;5034661;28;20247;-77
2024/01/03 07:28:37;;;;;;;3.20;1.00;;;9.80;85.30;;;;;;5034308;28;20290;-77
2024/01/03 07:31:05;;;;;;;2.00;0.73;;;9.80;85.10;;;;;;5035052;28;20585;-77
2024/01/03 07:33:32;;;;;;;1.70;0.70;;;9.70;84.70;;;;;;5034550;28;20615;-77
2024/01/03 07:35:59;;;;;;;1.70;0.60;;;9.60;84.20;;;;;;5034374;28;20187;-77
2024/01/03 07:38:26;;;;;;;1.92;0.90;;;9.50;84.50;;;;;;5034295;28;20677;-77
2024/01/03 07:40:53;;;;;;;2.47;0.73;;;9.50;84.50;;;;;;5034441;28;20198;-76
2024/01/03 07:43:20;;;;;;;8.15;1.60;;;9.50;84.50;;;;;;5034761;28;20230;-76
2024/01/03 07:45:47;;;;;;;1.90;0.70;;;9.40;84.60;;;;;;5034538;28;20203;-76
2024/01/03 07:48:16;;;;;;;1.70;0.73;;;9.40;85.20;;;;;;5033664;28;20243;-77
2024/01/03 07:50:43;;;;;;;1.75;0.70;;;9.40;85.30;;;;;;5034522;28;20279;-77
2024/01/03 07:53:10;;;;;;;2.03;1.00;;;9.40;85.20;;;;;;5034513;28;20230;-76
2024/01/03 07:55:37;;;;;;;1.80;0.80;;;9.80;84.90;;;;;;5033925;28;20194;-75
2024/01/03 07:58:09;;;;;;;1.80;0.80;;;10.40;80.80;;;;;;5034186;28;20233;-75
2024/01/03 08:00:36;;;;;;;1.80;0.80;;;10.80;79.20;;;;;;5034585;28;20191;-76
2024/01/03 08:03:04;;;;;;;2.22;0.85;;;11.00;77.00;;;;;;5034320;28;20192;-76
2024/01/03 08:05:32;;;;;;;2.67;2.20;;;11.20;75.10;;;;;;5034239;28;20195;-76
2024/01/03 08:07:59;;;;;;;2.83;1.03;;;11.40;74.10;;;;;;5033436;28;20207;-76
2024/01/03 08:10:26;;;;;;;2.00;0.80;;;11.40;72.30;;;;;;5033792;28;20517;-76
2024/01/03 08:12:53;;;;;;;6.00;1.10;;;11.30;71.70;;;;;;5033594;28;20238;-76
2024/01/03 08:15:21;;;;;;;1.92;0.90;;;11.30;71.60;;;;;;5033262;28;20466;-75
2024/01/03 08:17:48;;;;;;;1.73;0.80;;;11.20;70.90;;;;;;5031536;28;20562;-76
2024/01/03 08:20:15;;;;;;;3.10;1.23;;;11.20;71.00;;;;;;5033614;28;20488;-74
2024/01/03 08:22:44;;;;;;;2.40;0.97;;;11.10;70.40;;;;;;5033481;28;20469;-75
2024/01/03 08:25:11;;;;;;;2.00;0.90;;;11.00;70.50;;;;;;5033405;28;20532;-75
2024/01/03 08:27:39;;;;;;;4.97;1.03;;;11.10;70.80;;;;;;5033020;28;20497;-75
2024/01/03 08:30:07;;;;;;;2.15;1.05;;;11.10;70.70;;;;;;5029693;28;20442;-75
2024/01/03 08:32:36;;;;;;;2.35;0.90;;;11.10;69.60;;;;;;5032675;28;20310;-75
2024/01/03 08:35:03;;;;;;;3.55;1.02;;;11.10;68.50;;;;;;5032349;28;20195;-75
2024/01/03 08:37:30;;;;;;;2.15;1.00;;;11.20;68.40;;;;;;5032595;28;20583;-75
2024/01/03 08:39:59;;;;;;;2.08;0.95;;;11.30;67.90;;;;;;5032950;28;20196;-75
2024/01/03 08:42:26;;;;;;;2.80;0.90;;;11.40;67.60;;;;;;5032701;28;20542;-75
2024/01/03 08:44:53;;;;;;;2.67;1.10;;;11.60;66.00;;;;;;5033167;28;20469;-79
2024/01/03 08:47:20;;;;;;;2.33;1.00;;;11.80;65.50;;;;;;5028983;28;20967;-80
2024/01/03 08:49:47;;;;;;;2.57;1.10;;;11.90;63.20;;;;;;5032412;28;20529;-80
2024/01/03 08:52:14;;;;;;;6.80;0.90;;;11.90;63.30;;;;;;5030046;28;20517;-80
2024/01/03 08:54:41;;;;;;;5.73;1.00;;;12.30;62.70;;;;;;5027382;28;20444;-79
2024/01/03 08:57:10;;;;;;;2.13;1.07;;;12.80;60.20;;;;;;5032575;28;20533;-78
2024/01/03 08:59:36;;;;;;;5.40;2.23;;;13.50;59.50;;;;;;5031631;28;20434;-79
2024/01/03 09:02:04;;;;;;;2.23;0.90;;;14.10;57.50;;;;;;5032288;28;20472;-79
2024/01/03 09:04:31;;;;;;;2.90;0.97;;;14.60;55.80;;;;;;5031994;28;20812;-79
2024/01/03 09:06:58;;;;;;;3.27;1.10;;;15.00;53.70;;;;;;5032225;28;20593;-78
2024/01/03 09:09:25;;;;;;;3.40;1.17;;;15.20;52.50;;;;;;5030680;28;20514;-79
2024/01/03 09:11:52;;;;;;;6.07;1.37;;;15.50;51.60;;;;;;5015886;28;20521;-79
2024/01/03 09:14:20;;;;;;;3.80;0.90;;;15.70;49.40;;;;;;5012828;28;20462;-79
2024/01/03 09:16:47;;;;;;;3.83;1.10;;;15.90;48.50;;;;;;5012472;28;20534;-79
2024/01/03 09:19:14;;;;;;;3.60;0.93;;;16.10;48.20;;;;;;5011386;28;20430;-80
2024/01/03 09:21:45;;;;;;;4.87;0.90;;;16.30;47.00;;;;;;5029968;28;20525;-80
2024/01/03 09:24:12;;;;;;;2.20;0.90;;;16.50;45.40;;;;;;5031787;28;20445;-81
2024/01/03 09:26:42;;;;;;;4.93;0.90;;;16.70;44.80;;;;;;5031771;28;20593;-80
2024/01/03 09:29:10;;;;;;;2.00;0.57;;;16.90;45.00;;;;;;5032029;28;20432;-81
2024/01/03 09:31:44;;;;;;;3.47;1.10;;;17.10;43.60;;;;;;5031944;28;20462;-80
2024/01/03 09:34:12;;;;;;;3.90;1.33;;;17.30;43.50;;;;;;5031199;28;20431;-80
2024/01/03 09:36:41;;;;;;;2.40;0.80;;;17.50;42.40;;;;;;5027688;28;20444;-80
2024/01/03 09:39:09;;;;;;;2.20;0.80;;;17.70;42.70;;;;;;5017589;28;20447;-79
2024/01/03 09:41:36;;;;;;;2.73;1.03;;;17.90;41.70;;;;;;5030627;28;20936;-81
2024/01/03 09:44:03;;;;;;;2.03;0.80;;;18.10;41.20;;;;;;5030564;28;20437;-80
2024/01/03 09:46:30;;;;;;;2.00;1.00;;;18.10;40.50;;;;;;5031692;28;20473;-81
2024/01/03 09:48:58;;;;;;;1.90;0.90;;;17.70;39.70;;;;;;5031703;28;20472;-81
2024/01/03 09:51:25;;;;;;;1.90;0.60;;;17.60;40.10;;;;;;5031000;28;20459;-81
2024/01/03 09:53:54;;;;;;;4.23;0.87;;;17.80;41.00;;;;;;5031931;28;20532;-82
2024/01/03 09:56:22;;;;;;;2.53;0.73;;;18.20;40.20;;;;;;5031971;28;20481;-82
2024/01/03 09:58:49;;;;;;;2.60;0.77;;;18.50;38.20;;;;;;5031363;28;20951;-81
2024/01/03 10:01:15;;;;;;;2.60;0.90;;;18.40;37.80;;;;;;5030965;28;20429;-81
2024/01/03 10:03:42;;;;;;;2.03;0.67;;;18.20;38.20;;;;;;5031329;28;20541;-81
2024/01/03 10:06:13;;;;;;;2.23;0.70;;;18.10;37.70;;;;;;5031593;28;20441;-82
2024/01/03 10:08:40;;;;;;;2.57;0.70;;;18.40;37.70;;;;;;5031302;28;20971;-82
2024/01/03 10:11:20;;;;;;;2.20;0.67;;;18.90;37.50;;;;;;5030616;28;20488;-83
2024/01/03 10:13:49;;;;;;;2.30;0.90;;;19.30;37.20;;;;;;5031722;28;20457;-83
2024/01/03 10:16:23;;;;;;;2.57;0.70;;;19.60;36.40;;;;;;5031963;28;20529;-83
2024/01/03 10:19:09;;;;;;;1.97;0.70;;;19.70;35.50;;;;;;5032343;28;20520;-82
2024/01/03 10:21:38;;;;;;;2.10;0.70;;;19.50;33.70;;;;;;5031835;28;20500;-82
2024/01/03 10:24:07;;;;;;;2.70;0.87;;;19.10;33.70;;;;;;5032232;28;20438;-82
2024/01/03 10:26:35;;;;;;;1.70;0.60;;;18.80;34.30;;;;;;5032376;28;20438;-83
2024/01/03 10:29:12;;;;;;;3.60;0.60;;;18.50;34.80;;;;;;5032522;28;20500;-83
2024/01/03 10:31:39;;;;;;;3.23;0.70;;;18.30;35.60;;;;;;5031456;28;20465;-83
2024/01/03 10:34:07;;;;;;;4.60;0.73;;;18.30;36.80;;;;;;5035059;28;20437;-82
2024/01/03 10:36:35;;;;;;;2.40;0.70;;;18.40;35.70;;;;;;5035555;28;20438;-81
2024/01/03 10:39:05;;;;;;;2.73;0.77;;;18.30;36.50;;;;;;5036010;28;20487;-81
2024/01/03 10:41:32;;;;;;;2.00;0.60;;;18.00;36.90;;;;;;5035047;28;20437;-81
2024/01/03 10:44:01;;;;;;;2.47;0.80;;;17.70;36.20;;;;;;5035475;28;20864;-81
2024/01/03 10:46:28;;;;;;;3.90;0.70;;;17.50;36.40;;;;;;5034931;28;20457;-81
2024/01/03 10:48:55;;;;;;;3.47;0.80;;;17.40;37.50;;;;;;5035592;28;20483;-81
2024/01/03 10:51:24;;;;;;;4.50;1.03;;;17.30;37.50;;;;;;5035514;28;20436;-81
2024/01/03 10:53:54;;;;;;;2.40;0.70;;;17.40;37.20;;;;;;5035219;28;20955;-81
2024/01/03 10:56:23;;;;;;;4.37;0.93;;;17.50;37.00;;;;;;5035216;28;20445;-82
2024/01/03 10:58:50;;;;;;;3.47;0.80;;;17.90;36.60;;;;;;5035198;28;20868;-81
2024/01/03 11:01:21;;;;;;;3.27;2.60;;;18.40;36.40;;;;;;5035457;28;20528;-82
2024/01/03 11:03:58;;;;;;;1.93;0.77;;;19.10;35.90;;;;;;5034921;28;20422;-82
2024/01/03 11:06:31;;;;;;;2.30;0.70;;;19.80;34.60;;;;;;5035067;28;20440;-82
2024/01/03 11:08:59;;;;;;;2.10;0.70;;;20.50;33.30;;;;;;5034808;28;20586;-82
2024/01/03 11:11:32;;;;;;;3.40;1.13;;;21.30;31.60;;;;;;5034976;28;20462;-84
2024/01/03 11:13:59;;;;;;;1.90;0.60;;;21.50;31.20;;;;;;5035334;28;20433;-84
2024/01/03 11:16:37;;;;;;;2.03;0.80;;;22.00;30.50;;;;;;5034429;28;20516;-83
2024/01/03 11:19:05;;;;;;;2.67;0.70;;;22.70;29.40;;;;;;5035070;28;20476;-83
2024/01/03 11:21:43;;;;;;;1.80;0.60;;;23.00;28.80;;;;;;5035118;28;20438;-83
2024/01/03 11:24:56;;;;;;;3.13;0.80;;;22.60;28.00;;;;;;5034752;28;20471;-82
2024/01/03 11:27:25;;;;;;;2.30;0.97;;;22.00;28.10;;;;;;5034891;28;20465;-81
2024/01/03 11:29:53;;;;;;;2.40;0.90;;;21.70;28.10;;;;;;5034734;28;20433;-82
2024/01/03 11:32:31;;;;;;;2.40;0.60;;;21.70;28.60;;;;;;5034607;28;20474;-82
2024/01/03 11:34:58;;;;;;;2.07;0.80;;;21.80;28.70;;;;;;5035089;28;20426;-85
2024/01/03 11:37:32;;;;;;;2.50;0.80;;;21.90;28.60;;;;;;5026230;28;20481;-88
2024/01/03 11:39:59;;;;;;;2.30;0.70;;;21.90;27.70;;;;;;5014819;28;20447;-86
2024/01/03 11:42:33;;;;;;;2.10;0.60;;;21.30;27.10;;;;;;5023464;28;20426;-84
2024/01/03 11:45:02;;;;;;;2.20;0.97;;;21.00;28.10;;;;;;5033041;28;20454;-85
2024/01/03 11:47:29;;;;;;;1.87;0.60;;;21.20;28.10;;;;;;5033851;28;20465;-83
2024/01/03 11:49:57;;;;;;;2.77;0.60;;;21.30;27.60;;;;;;5034047;28;20469;-83
2024/01/03 11:52:24;;;;;;;2.27;0.90;;;21.40;26.80;;;;;;5032440;28;20438;-83
2024/01/03 11:54:51;;;;;;;4.90;0.60;;;21.50;25.70;;;;;;5032687;28;20445;-83
2024/01/03 11:57:22;;;;;;;1.70;0.50;;;21.60;25.50;;;;;;5034111;28;20891;-83
2024/01/03 11:59:59;;;;;;;2.20;0.77;;;21.60;25.20;;;;;;5033098;28;20480;-83
2024/01/03 12:02:33;;;;;;;2.30;0.60;;;21.60;24.70;;;;;;5033111;28;20453;-84
2024/01/03 12:05:01;;;;;;;2.43;0.67;;;21.60;24.50;;;;;;5033382;28;20473;-85
2024/01/03 12:07:29;;;;;;;3.30;0.80;;;21.30;24.90;;;;;;5033880;28;20508;-84
2024/01/03 12:09:57;;;;;;;2.40;0.70;;;21.00;25.10;;;;;;5033986;28;20484;-83
2024/01/03 12:12:25;;;;;;;2.00;0.83;;;20.60;25.30;;;;;;5033900;28;20437;-85
2024/01/03 12:14:54;;;;;;;1.90;0.60;;;20.30;25.50;;;;;;5033534;28;20716;-83
2024/01/03 12:17:26;;;;;;;2.30;0.83;;;19.90;26.00;;;;;;5033626;28;20505;-84
2024/01/03 12:19:53;;;;;;;2.10;0.60;;;19.70;26.00;;;;;;5033782;28;20434;-83
2024/01/03 12:22:23;;;;;;;2.23;0.70;;;19.40;26.00;;;;;;5033153;28;20483;-83
2024/01/03 12:24:50;;;;;;;2.73;0.80;;;19.20;26.80;;;;;;5033310;28;20935;-84
2024/01/03 12:27:24;;;;;;;2.40;0.73;;;19.10;27.20;;;;;;5033474;28;20422;-84
2024/01/03 12:29:51;;;;;;;1.90;0.70;;;19.10;27.30;;;;;;5033882;28;20835;-84
2024/01/03 12:32:20;;;;;;;3.30;0.83;;;19.10;26.70;;;;;;5033714;28;20445;-85
2024/01/03 12:34:49;;;;;;;2.10;0.60;;;19.30;26.50;;;;;;5033862;28;20437;-84
2024/01/03 12:37:16;;;;;;;2.57;1.10;;;19.40;26.10;;;;;;5032906;28;21032;-84
2024/01/03 12:39:43;;;;;;;2.77;0.57;;;19.60;25.90;;;;;;5033277;28;20520;-84
2024/01/03 12:42:12;;;;;;;2.00;0.60;;;19.80;26.40;;;;;;5033659;28;20879;-84
2024/01/03 12:44:42;;;;;;;2.57;0.70;;;19.80;25.60;;;;;;5033136;28;20434;-83
2024/01/03 12:47:10;;;;;;;2.60;0.80;;;19.70;25.40;;;;;;5031187;28;21216;-84
2024/01/03 12:49:39;;;;;;;3.60;0.80;;;19.40;25.80;;;;;;5032828;28;20434;-85
2024/01/03 12:52:07;;;;;;;2.63;0.90;;;19.10;25.80;;;;;;5033003;28;20576;-84
2024/01/03 12:54:34;;;;;;;2.17;0.57;;;18.90;26.00;;;;;;5033108;28;20422;-83